createdAt,value
2019-03-27T00:00:38.597Z,22.40
2019-03-27T00:03:12.598Z,22.67
2019-03-27T00:05:45.028Z,22.37
2019-03-27T00:08:17.275Z,22.17
2019-03-27T00:10:49.604Z,22.26
2019-03-27T00:13:21.914Z,22.15
2019-03-27T00:15:54.159Z,22.27
2019-03-27T00:18:26.505Z,22.43
2019-03-27T00:20:59.149Z,22.34
2019-03-27T00:23:31.499Z,22.02
2019-03-27T00:26:03.779Z,22.28
2019-03-27T00:28:36.035Z,22.07
2019-03-27T00:31:11.624Z,22.13
2019-03-27T00:33:42.235Z,22.03
2019-03-27T00:36:14.520Z,21.71
2019-03-27T00:38:46.767Z,21.84
2019-03-27T00:41:19.006Z,21.86
2019-03-27T00:43:51.457Z,21.92
2019-03-27T00:46:25.379Z,21.78
2019-03-27T00:48:57.734Z,22.02
2019-03-27T00:51:30.146Z,21.92
2019-03-27T00:54:02.446Z,21.92
2019-03-27T00:56:34.727Z,22.03
2019-03-27T00:59:07.841Z,22.03
2019-03-27T01:01:40.106Z,21.90
2019-03-27T01:04:12.345Z,21.86
2019-03-27T01:06:44.632Z,22.16
2019-03-27T01:09:16.929Z,22.27
2019-03-27T01:11:51.414Z,22.19
2019-03-27T01:14:23.699Z,22.10
2019-03-27T01:16:56.013Z,22.13
2019-03-27T01:19:28.257Z,22.21
2019-03-27T01:22:09.642Z,22.22
2019-03-27T01:24:49.509Z,22.44
2019-03-27T01:27:29.499Z,22.57
2019-03-27T01:33:30.652Z,22.72
2019-03-27T01:36:09.702Z,23.15
2019-03-27T01:38:42.001Z,23.98
2019-03-27T01:41:14.332Z,24.24
2019-03-27T01:43:48.908Z,24.00
2019-03-27T01:46:21.259Z,23.95
2019-03-27T01:48:53.627Z,23.62
2019-03-27T01:51:32.511Z,23.37
2019-03-27T01:55:26.921Z,23.29
2019-03-27T01:58:20.151Z,23.45
2019-03-27T02:00:54.168Z,23.61
2019-03-27T02:03:26.473Z,23.74
2019-03-27T02:05:59.187Z,23.92
2019-03-27T02:08:31.469Z,24.00
2019-03-27T02:11:04.767Z,24.07
2019-03-27T02:13:37.048Z,24.26
2019-03-27T02:16:45.252Z,24.50
2019-03-27T02:19:19.911Z,24.71
2019-03-27T02:22:02.298Z,25.35
2019-03-27T02:24:36.836Z,25.77
2019-03-27T02:27:16.190Z,25.57
2019-03-27T02:29:56.956Z,25.52
2019-03-27T02:32:35.356Z,25.69
2019-03-27T02:35:32.469Z,25.62
2019-03-27T02:38:07.923Z,25.75
2019-03-27T02:40:41.274Z,25.80
2019-03-27T02:43:31.702Z,25.89
2019-03-27T02:46:04.132Z,25.11
2019-03-27T02:48:40.491Z,24.88
2019-03-27T02:51:30.828Z,25.60
2019-03-27T02:54:03.599Z,25.24
2019-03-27T02:56:35.888Z,25.31
2019-03-27T02:59:09.636Z,26.25
2019-03-27T03:02:02.852Z,26.29
2019-03-27T03:04:58.817Z,26.70
2019-03-27T03:07:34.366Z,26.83
2019-03-27T03:10:57.328Z,27.21
2019-03-27T03:12:54.582Z,25.51
2019-03-27T03:15:28.651Z,25.50
2019-03-27T03:18:09.741Z,25.23
2019-03-27T03:20:42.026Z,25.56
2019-03-27T03:23:24.887Z,25.83
2019-03-27T03:26:06.408Z,26.12
2019-03-27T03:28:38.743Z,26.43
2019-03-27T03:31:18.792Z,26.60
2019-03-27T03:36:59.266Z,26.17
2019-03-27T03:39:31.553Z,26.36
2019-03-27T03:42:03.861Z,26.18
2019-03-27T03:44:36.182Z,26.30
2019-03-27T03:47:08.526Z,26.61
2019-03-27T03:50:01.154Z,26.03
2019-03-27T03:52:38.310Z,26.04
2019-03-27T03:55:24.080Z,25.67
2019-03-27T03:59:36.548Z,25.75
2019-03-27T04:01:22.268Z,25.99
2019-03-27T04:04:03.647Z,25.66
2019-03-27T04:06:37.861Z,26.61
2019-03-27T04:09:12.076Z,26.49
2019-03-27T04:12:11.229Z,26.34
2019-03-27T04:14:43.681Z,25.99
2019-03-27T04:17:18.120Z,26.31
2019-03-27T04:19:50.462Z,26.26
2019-03-27T04:22:23.414Z,26.55
2019-03-27T04:25:14.905Z,26.56
2019-03-27T04:27:47.204Z,27.74
2019-03-27T04:30:19.836Z,27.83
2019-03-27T04:32:52.634Z,28.04
2019-03-27T04:35:27.118Z,28.24
2019-03-27T04:38:03.582Z,27.92
2019-03-27T04:40:36.209Z,27.61
2019-03-27T04:43:16.472Z,27.50
2019-03-27T04:45:48.759Z,27.84
2019-03-27T04:48:21.143Z,27.96
2019-03-27T04:50:55.502Z,27.92
2019-03-27T04:53:28.444Z,27.80
2019-03-27T04:56:01.142Z,27.80
2019-03-27T04:58:33.723Z,27.45
2019-03-27T05:01:06.006Z,27.41
2019-03-27T05:03:38.852Z,26.97
2019-03-27T05:06:11.625Z,27.08
2019-03-27T05:08:43.987Z,27.06
2019-03-27T05:11:16.224Z,27.51
2019-03-27T05:13:48.494Z,27.98
2019-03-27T05:16:20.765Z,27.49
2019-03-27T05:18:53.052Z,27.81
2019-03-27T05:21:25.333Z,28.24
2019-03-27T05:23:57.639Z,27.81
2019-03-27T05:26:29.999Z,27.27
2019-03-27T05:29:02.456Z,27.30
2019-03-27T05:31:35.104Z,27.62
2019-03-27T05:34:07.414Z,27.60
2019-03-27T05:36:41.277Z,27.76
2019-03-27T05:39:14.661Z,27.93
2019-03-27T05:41:47.580Z,28.26
2019-03-27T05:44:19.892Z,28.20
2019-03-27T05:46:52.228Z,28.34
2019-03-27T05:49:24.549Z,28.13
2019-03-27T05:51:56.839Z,28.74
2019-03-27T05:54:29.561Z,28.85
2019-03-27T05:57:02.956Z,28.84
2019-03-27T05:59:39.082Z,28.85
2019-03-27T06:02:11.383Z,29.09
2019-03-27T06:04:43.671Z,29.29
2019-03-27T06:07:15.971Z,28.53
2019-03-27T06:09:48.263Z,29.57
2019-03-27T06:12:21.956Z,29.52
2019-03-27T06:14:54.196Z,29.33
2019-03-27T06:17:27.698Z,29.95
2019-03-27T06:19:59.933Z,30.47
2019-03-27T06:22:32.457Z,30.44
2019-03-27T06:25:05.219Z,30.42
2019-03-27T06:27:38.611Z,30.53
2019-03-27T06:30:11.002Z,30.24
2019-03-27T06:32:43.324Z,30.20
2019-03-27T06:35:20.076Z,31.22
2019-03-27T06:37:51.467Z,31.56
2019-03-27T06:40:23.762Z,31.82
2019-03-27T06:42:56.053Z,31.51
2019-03-27T06:45:28.354Z,31.21
2019-03-27T06:48:00.612Z,32.10
2019-03-27T06:50:32.941Z,32.07
2019-03-27T06:53:05.593Z,31.58
2019-03-27T06:55:37.846Z,31.33
2019-03-27T06:58:11.846Z,31.22
2019-03-27T07:00:44.098Z,30.69
2019-03-27T07:03:16.402Z,30.54
2019-03-27T07:05:49.637Z,31.25
2019-03-27T07:08:21.944Z,31.25
2019-03-27T07:10:54.197Z,31.62
2019-03-27T07:13:26.574Z,31.63
2019-03-27T07:15:58.866Z,32.27
2019-03-27T07:18:40.058Z,31.47
2019-03-27T07:21:05.170Z,31.14
2019-03-27T07:23:37.643Z,30.51
2019-03-27T07:26:09.935Z,29.91
2019-03-27T07:28:42.318Z,29.79
2019-03-27T07:31:14.636Z,29.69
2019-03-27T07:33:46.887Z,29.23
2019-03-27T07:36:19.198Z,29.10
2019-03-27T07:38:51.514Z,28.92
2019-03-27T07:41:23.860Z,29.05
2019-03-27T07:43:57.245Z,28.63
2019-03-27T07:46:29.538Z,29.15
2019-03-27T07:49:01.853Z,28.87
2019-03-27T07:51:34.407Z,28.72
2019-03-27T07:54:06.794Z,28.23
2019-03-27T07:56:40.463Z,27.00
2019-03-27T07:59:12.829Z,25.65
2019-03-27T08:01:45.133Z,25.10
2019-03-27T08:04:17.381Z,24.56
2019-03-27T08:06:49.626Z,24.28
2019-03-27T08:09:23.128Z,24.04
2019-03-27T08:11:55.608Z,23.94
2019-03-27T08:14:27.910Z,24.19
2019-03-27T08:17:00.204Z,23.71
2019-03-27T08:19:32.460Z,24.17
2019-03-27T08:22:04.773Z,24.03
2019-03-27T08:24:37.075Z,23.91
2019-03-27T08:32:00.361Z,23.82
2019-03-27T08:35:10.504Z,23.94
2019-03-27T08:37:44.534Z,23.66
2019-03-27T08:40:16.762Z,23.34
2019-03-27T08:42:49.044Z,22.74
2019-03-27T08:45:21.304Z,22.77
2019-03-27T08:47:53.544Z,22.72
2019-03-27T08:50:25.796Z,22.70
2019-03-27T08:52:58.058Z,22.78
2019-03-27T08:55:30.328Z,22.91
2019-03-27T08:58:02.595Z,22.80
2019-03-27T09:00:54.643Z,22.47
2019-03-27T09:03:26.897Z,23.36
2019-03-27T09:05:59.271Z,23.05
2019-03-27T09:08:31.557Z,23.39
2019-03-27T09:11:04.803Z,23.71
2019-03-27T09:13:37.269Z,23.21
2019-03-27T09:16:11.164Z,23.15
2019-03-27T09:18:43.413Z,22.79
2019-03-27T09:21:15.729Z,22.79
2019-03-27T09:23:47.984Z,22.50
2019-03-27T09:26:20.270Z,22.47
2019-03-27T09:28:52.530Z,22.93
2019-03-27T09:31:25.269Z,22.83
2019-03-27T09:33:57.663Z,23.12
2019-03-27T09:36:30.088Z,23.02
2019-03-27T09:39:02.371Z,22.55
2019-03-27T09:41:35.832Z,22.07
2019-03-27T09:44:08.128Z,22.32
2019-03-27T09:46:40.376Z,22.70
2019-03-27T09:49:12.709Z,22.31
2019-03-27T09:51:44.945Z,22.51
2019-03-27T09:54:17.262Z,21.57
2019-03-27T09:56:49.516Z,21.75
2019-03-27T09:59:21.803Z,21.64
2019-03-27T10:01:54.137Z,21.88
2019-03-27T10:04:27.542Z,22.08
2019-03-27T10:06:59.840Z,22.22
2019-03-27T10:09:32.106Z,22.52
2019-03-27T10:12:05.082Z,22.46
2019-03-27T10:14:37.362Z,22.68
2019-03-27T10:17:10.142Z,22.40
2019-03-27T10:19:42.409Z,22.22
2019-03-27T10:22:14.682Z,22.96
2019-03-27T10:24:47.022Z,22.35
2019-03-27T10:27:19.294Z,22.07
2019-03-27T10:29:51.636Z,21.51
2019-03-27T10:32:23.903Z,21.86
2019-03-27T10:34:56.210Z,21.30
2019-03-27T10:37:28.460Z,21.03
2019-03-27T10:40:00.761Z,21.66
2019-03-27T10:42:33.015Z,21.51
2019-03-27T10:45:05.384Z,21.44
2019-03-27T10:47:37.709Z,22.15
2019-03-27T10:50:17.660Z,22.09
2019-03-27T10:52:43.996Z,21.16
2019-03-27T10:55:16.301Z,21.36
2019-03-27T10:57:48.540Z,21.28
2019-03-27T11:00:20.839Z,21.41
2019-03-27T11:02:53.189Z,21.17
2019-03-27T11:05:25.618Z,21.34
2019-03-27T11:07:57.890Z,21.16
2019-03-27T11:10:30.165Z,21.46
2019-03-27T11:13:02.540Z,21.21
2019-03-27T11:15:34.772Z,21.64
2019-03-27T11:18:07.948Z,22.05
2019-03-27T11:20:42.046Z,22.01
2019-03-27T11:23:14.324Z,20.94
2019-03-27T11:25:46.568Z,22.18
2019-03-27T11:28:18.858Z,20.99
2019-03-27T11:30:51.109Z,20.85
2019-03-27T11:33:23.398Z,21.10
2019-03-27T11:35:55.642Z,22.42
2019-03-27T11:38:27.965Z,22.07
2019-03-27T11:41:00.264Z,21.22
2019-03-27T11:43:32.583Z,21.48
2019-03-27T11:46:05.611Z,21.15
2019-03-27T11:48:37.903Z,21.73
2019-03-27T11:51:10.281Z,22.09
2019-03-27T11:53:42.570Z,21.98
2019-03-27T11:56:14.868Z,21.45
2019-03-27T11:58:47.172Z,21.17
2019-03-27T12:01:19.471Z,20.56
2019-03-27T12:03:51.725Z,20.05
2019-03-27T12:06:24.025Z,20.86
2019-03-27T12:08:56.612Z,21.18
2019-03-27T12:11:28.919Z,21.04
2019-03-27T12:14:01.148Z,21.15
2019-03-27T12:16:33.586Z,21.56
2019-03-27T12:19:05.946Z,22.52
2019-03-27T12:21:38.268Z,22.25
2019-03-27T12:24:10.862Z,22.09
2019-03-27T12:26:43.829Z,22.82
2019-03-27T12:29:18.140Z,22.52
2019-03-27T12:31:51.134Z,22.82
2019-03-27T12:34:23.452Z,23.65
2019-03-27T12:36:55.767Z,23.65
2019-03-27T12:39:28.110Z,23.04
2019-03-27T12:42:00.420Z,22.84
2019-03-27T12:44:32.696Z,22.91
2019-03-27T12:47:06.531Z,23.63
2019-03-27T12:49:38.933Z,23.26
2019-03-27T12:52:11.232Z,22.74
2019-03-27T12:54:43.688Z,22.21
2019-03-27T12:57:16.010Z,22.43
2019-03-27T12:59:48.287Z,22.83
2019-03-27T13:02:20.890Z,22.69
2019-03-27T13:04:53.134Z,22.60
2019-03-27T13:07:25.393Z,22.27
2019-03-27T13:09:57.690Z,22.45
2019-03-27T13:12:30.098Z,22.37
2019-03-27T13:15:02.372Z,22.44
2019-03-27T13:17:34.765Z,22.57
2019-03-27T13:20:07.553Z,22.36
2019-03-27T13:22:39.880Z,21.98
2019-03-27T13:25:12.133Z,22.36
2019-03-27T13:27:47.370Z,21.91
2019-03-27T13:30:19.663Z,22.80
2019-03-27T13:32:51.929Z,23.24
2019-03-27T13:35:24.178Z,22.48
2019-03-27T13:37:56.511Z,22.42
2019-03-27T13:40:28.752Z,22.94
2019-03-27T13:43:01.033Z,22.53
2019-03-27T13:45:33.343Z,22.65
2019-03-27T13:48:05.677Z,23.09
2019-03-27T13:50:38.129Z,22.89
2019-03-27T13:53:10.499Z,22.91
2019-03-27T13:55:42.817Z,22.52
2019-03-27T13:58:15.227Z,22.62
2019-03-27T14:00:47.511Z,22.19
2019-03-27T14:03:19.849Z,22.20
2019-03-27T14:05:52.135Z,22.78
2019-03-27T14:08:24.413Z,22.02
2019-03-27T14:10:57.030Z,22.70
2019-03-27T14:13:29.487Z,21.42
2019-03-27T14:16:01.928Z,21.89
2019-03-27T14:18:34.242Z,22.67
2019-03-27T14:21:06.851Z,21.74
2019-03-27T14:23:39.117Z,21.72
2019-03-27T14:26:13.109Z,22.12
2019-03-27T14:28:45.357Z,21.87
2019-03-27T14:31:18.602Z,22.09
2019-03-27T14:33:50.883Z,22.33
2019-03-27T14:36:23.157Z,21.57
2019-03-27T14:38:55.443Z,21.11
2019-03-27T14:41:27.755Z,21.15
2019-03-27T14:44:00.020Z,21.20
2019-03-27T14:46:32.331Z,22.05
2019-03-27T14:49:04.605Z,20.96
2019-03-27T14:51:36.905Z,20.68
2019-03-27T14:54:09.208Z,21.62
2019-03-27T14:56:41.518Z,20.95
2019-03-27T14:59:13.800Z,20.51
2019-03-27T15:01:47.351Z,20.81
2019-03-27T15:04:19.922Z,21.62
2019-03-27T15:06:52.228Z,20.92
2019-03-27T15:09:24.548Z,21.53
2019-03-27T15:11:57.230Z,20.46
2019-03-27T15:14:29.524Z,20.56
2019-03-27T15:17:01.818Z,21.56
2019-03-27T15:19:35.164Z,21.07
2019-03-27T15:22:21.455Z,20.82
2019-03-27T15:24:41.386Z,21.04
2019-03-27T15:27:13.674Z,20.60
2019-03-27T15:29:45.990Z,21.32
2019-03-27T15:32:18.233Z,21.69
2019-03-27T15:34:50.571Z,20.97
2019-03-27T15:37:22.918Z,20.90
2019-03-27T15:39:55.342Z,20.32
2019-03-27T15:42:27.629Z,21.30
2019-03-27T15:44:59.898Z,21.04
2019-03-27T15:47:32.151Z,20.90
2019-03-27T15:50:05.125Z,20.39
2019-03-27T15:52:37.505Z,20.74
2019-03-27T15:55:10.145Z,20.97
2019-03-27T15:57:42.444Z,21.24
2019-03-27T16:00:14.837Z,21.41
2019-03-27T16:02:47.179Z,21.45
2019-03-27T16:05:19.423Z,21.68
2019-03-27T16:07:52.246Z,21.75
2019-03-27T16:10:24.680Z,21.23
2019-03-27T16:12:57.159Z,20.98
2019-03-27T16:15:30.022Z,21.03
2019-03-27T16:18:02.669Z,20.75
2019-03-27T16:20:35.469Z,23.59
2019-03-27T16:23:07.868Z,21.73
2019-03-27T16:25:40.167Z,21.87
2019-03-27T16:28:12.409Z,22.13
2019-03-27T16:30:44.703Z,22.32
2019-03-27T16:33:16.975Z,21.46
2019-03-27T16:35:49.465Z,22.29
2019-03-27T16:38:21.698Z,22.21
2019-03-27T16:40:54.656Z,22.19
2019-03-27T16:43:27.167Z,22.40
2019-03-27T16:45:59.522Z,21.80
2019-03-27T16:48:32.112Z,22.19
2019-03-27T16:51:05.785Z,22.87
2019-03-27T16:53:38.188Z,22.14
2019-03-27T16:56:10.458Z,21.91
2019-03-27T16:58:42.849Z,22.33
2019-03-27T17:01:15.137Z,21.94
2019-03-27T17:03:47.395Z,21.74
2019-03-27T17:06:19.636Z,23.07
2019-03-27T17:08:51.883Z,22.30
2019-03-27T17:11:24.580Z,22.12
2019-03-27T17:13:56.849Z,22.44
2019-03-27T17:16:29.092Z,22.71
2019-03-27T17:19:01.386Z,22.95
2019-03-27T17:21:33.651Z,23.62
2019-03-27T17:24:05.980Z,23.56
2019-03-27T17:26:38.637Z,24.34
2019-03-27T17:29:11.295Z,23.74
2019-03-27T17:31:43.602Z,24.43
2019-03-27T17:34:15.959Z,24.79
2019-03-27T17:36:48.301Z,25.66
2019-03-27T17:39:20.415Z,26.40
2019-03-27T17:41:52.676Z,26.33
2019-03-27T17:44:24.936Z,24.89
2019-03-27T17:46:57.789Z,25.30
2019-03-27T17:49:30.032Z,26.54
2019-03-27T17:52:02.332Z,25.52
2019-03-27T17:54:34.602Z,27.00
2019-03-27T17:57:06.858Z,27.44
2019-03-27T17:59:39.145Z,28.09
2019-03-27T18:02:11.412Z,29.78
2019-03-27T18:04:43.721Z,28.90
2019-03-27T18:07:15.997Z,26.71
2019-03-27T18:09:48.283Z,30.25
2019-03-27T18:12:22.523Z,29.60
2019-03-27T18:14:54.768Z,27.26
2019-03-27T18:17:27.027Z,27.57
2019-03-27T18:19:59.368Z,27.31
2019-03-27T18:22:31.621Z,27.06
2019-03-27T18:25:06.510Z,27.38
2019-03-27T18:27:38.758Z,27.21
2019-03-27T18:30:11.016Z,28.77
2019-03-27T18:32:43.351Z,28.14
2019-03-27T18:35:15.631Z,28.01
2019-03-27T18:37:47.928Z,28.88
2019-03-27T18:40:20.628Z,30.93
2019-03-27T18:42:52.907Z,31.28
2019-03-27T18:45:25.349Z,31.76
2019-03-27T18:47:57.663Z,31.52
2019-03-27T18:50:29.922Z,31.60
2019-03-27T18:53:02.163Z,33.01
2019-03-27T18:55:34.424Z,31.86
2019-03-27T18:58:07.130Z,31.49
2019-03-27T19:00:39.386Z,32.13
2019-03-27T19:03:11.692Z,32.69
2019-03-27T19:05:43.975Z,32.61
2019-03-27T19:08:16.261Z,33.26
2019-03-27T19:10:48.509Z,32.16
2019-03-27T19:13:20.791Z,33.16
2019-03-27T19:15:53.586Z,33.90
2019-03-27T19:18:25.856Z,34.99
2019-03-27T19:20:58.115Z,34.09
2019-03-27T19:23:30.407Z,33.77
2019-03-27T19:26:02.671Z,33.64
2019-03-27T19:28:34.889Z,34.48
2019-03-27T19:31:07.308Z,34.79
2019-03-27T19:33:40.886Z,35.90
2019-03-27T19:36:13.146Z,36.21
2019-03-27T19:38:45.431Z,35.68
2019-03-27T19:41:17.769Z,36.01
2019-03-27T19:43:50.049Z,36.08
2019-03-27T19:46:22.375Z,36.52
2019-03-27T19:48:55.129Z,37.46
2019-03-27T19:51:27.390Z,36.98
2019-03-27T19:53:59.688Z,37.70
2019-03-27T19:56:31.967Z,36.95
2019-03-27T19:59:04.228Z,37.28
2019-03-27T20:01:36.561Z,37.26
2019-03-27T20:04:10.073Z,37.56
2019-03-27T20:06:42.384Z,38.66
2019-03-27T20:09:14.653Z,38.85
2019-03-27T20:11:47.147Z,39.42
2019-03-27T20:14:19.549Z,40.02
2019-03-27T20:16:51.832Z,40.42
2019-03-27T20:19:24.208Z,40.09
2019-03-27T20:21:56.487Z,40.16
2019-03-27T20:24:40.458Z,40.44
2019-03-27T20:27:02.675Z,41.14
2019-03-27T20:29:35.036Z,41.81
2019-03-27T20:32:08.136Z,41.91
2019-03-27T20:34:40.390Z,41.50
2019-03-27T20:37:12.768Z,41.76
2019-03-27T20:39:45.126Z,42.13
2019-03-27T20:42:17.410Z,41.90
2019-03-27T20:44:49.873Z,41.85
2019-03-27T20:47:22.153Z,41.77
2019-03-27T20:49:54.433Z,41.81
2019-03-27T20:52:26.696Z,41.65
2019-03-27T20:54:58.980Z,41.92
2019-03-27T20:57:31.370Z,42.24
2019-03-27T21:00:03.769Z,42.65
2019-03-27T21:02:36.075Z,42.92
2019-03-27T21:05:08.973Z,43.42
2019-03-27T21:07:41.242Z,44.15
2019-03-27T21:10:15.319Z,44.08
2019-03-27T21:12:47.590Z,44.28
2019-03-27T21:15:19.903Z,44.76
2019-03-27T21:17:52.202Z,44.97
2019-03-27T21:20:24.489Z,45.23
2019-03-27T21:22:56.925Z,45.23
2019-03-27T21:25:29.208Z,45.53
2019-03-27T21:28:04.708Z,45.83
2019-03-27T21:30:38.464Z,47.36
2019-03-27T21:33:10.847Z,46.84
2019-03-27T21:35:43.224Z,46.63
2019-03-27T21:38:15.531Z,46.11
2019-03-27T21:40:47.895Z,46.03
2019-03-27T21:43:20.222Z,46.08
2019-03-27T21:45:52.876Z,46.95
2019-03-27T21:48:25.171Z,47.57
2019-03-27T21:50:57.499Z,47.46
2019-03-27T21:53:29.848Z,47.69
2019-03-27T21:56:02.153Z,47.79
2019-03-27T21:58:34.541Z,48.37
2019-03-27T22:01:08.086Z,48.19
2019-03-27T22:03:40.418Z,47.57
2019-03-27T22:06:12.776Z,48.05
2019-03-27T22:08:45.071Z,48.31
2019-03-27T22:11:18.272Z,49.02
2019-03-27T22:13:50.634Z,48.81
2019-03-27T22:16:23.022Z,48.04
2019-03-27T22:18:55.395Z,48.06
2019-03-27T22:21:27.750Z,48.24
2019-03-27T22:24:00.131Z,47.66
2019-03-27T22:26:32.458Z,47.41
2019-03-27T22:29:05.305Z,47.30
2019-03-27T22:31:37.673Z,46.57
2019-03-27T22:34:10.538Z,46.61
2019-03-27T22:36:42.924Z,46.70
2019-03-27T22:39:15.238Z,48.00
2019-03-27T22:41:48.022Z,48.74
2019-03-27T22:44:20.370Z,48.55
2019-03-27T22:46:52.696Z,48.37
2019-03-27T22:49:25.064Z,47.97
2019-03-27T22:51:57.844Z,47.59
2019-03-27T22:54:30.143Z,47.91
2019-03-27T22:57:02.481Z,48.19
2019-03-27T22:59:34.870Z,48.72
2019-03-27T23:02:07.158Z,49.12
2019-03-27T23:04:39.435Z,49.37
2019-03-27T23:07:11.792Z,49.62
2019-03-27T23:09:44.121Z,49.70
2019-03-27T23:12:16.456Z,50.05
2019-03-27T23:14:48.802Z,50.91
2019-03-27T23:17:21.231Z,51.20
2019-03-27T23:19:53.525Z,51.15
2019-03-27T23:22:25.895Z,51.69
2019-03-27T23:24:58.250Z,51.77
2019-03-27T23:27:30.559Z,52.05
2019-03-27T23:30:04.078Z,51.99
2019-03-27T23:32:36.445Z,50.90
2019-03-27T23:35:11.999Z,50.61
2019-03-27T23:37:44.340Z,50.02
2019-03-27T23:40:17.187Z,49.58
2019-03-27T23:42:49.647Z,50.77
2019-03-27T23:45:21.982Z,51.60
2019-03-27T23:47:54.383Z,51.82
2019-03-27T23:50:26.785Z,52.06
2019-03-27T23:52:59.115Z,52.31
2019-03-27T23:55:31.426Z,52.86
2019-03-27T23:58:03.752Z,52.80
